St Thomas, Virgin Islands
Current Conditions -  °F | °C
As of 10:00 PM on Saturday 20 Dec 2014 (Local Time) from TUPJ Reporting Station
Scattered Clouds Scattered Clouds  
Wind Chill: 77°   Ceiling: Unl
Heat Index: 78°   Visibility: 6mi
Dew Point: 72°   Wind: 7mph
Humidity: 83%   Direction: 70°ENE
Pressure: 30.06"   Gusts: NA
Location:  18.3436°N, 64.9322°W
Report Text: TUPJ 210200Z 07006KT 9999 SCT020 25/22 Q1018 RMK A3007
Loading
Personal Weather Stations






























Interactive Weather Map New forecast layout! Learn more

10-Day Weather Forecast

Advertisements
Track Severe Weather on mobile